Time;durP1;ratioP1;P1;durP2;ratioP2;P2;SDS_P1;SDS_P2;PMS_P1;PMS_P2;Temp;Humidity;BMP_temperature;BMP_pressure;BME280_temperature;BME280_humidity;BME280_pressure;Samples;Min_cycle;Max_cycle;Signal;HPM_P1;HPM_P2
2022/05/11 00:00:43;;;;;;;7.75;4.00;;;15.60;56.20;;;;;;5097471;28;20454;-78
2022/05/11 00:03:12;;;;;;;8.38;4.63;;;15.60;56.10;;;;;;5116496;28;20032;-73
2022/05/11 00:05:42;;;;;;;9.38;5.38;;;15.50;55.70;;;;;;5097374;28;20403;-73
2022/05/11 00:08:11;;;;;;;10.05;4.95;;;15.40;56.20;;;;;;5097585;28;20042;-78
2022/05/11 00:10:38;;;;;;;8.73;5.00;;;15.40;56.30;;;;;;5079369;28;20081;-73
2022/05/11 00:13:05;;;;;;;8.52;5.53;;;15.30;56.00;;;;;;5116411;28;20051;-78
2022/05/11 00:15:34;;;;;;;8.95;5.07;;;15.30;56.00;;;;;;5096764;28;20508;-73
2022/05/11 00:18:02;;;;;;;13.02;5.63;;;15.30;55.60;;;;;;5116268;28;20048;-73
2022/05/11 00:20:28;;;;;;;10.75;6.07;;;15.20;56.10;;;;;;5097147;28;20134;-78
2022/05/11 00:22:57;;;;;;;11.43;5.97;;;15.20;55.90;;;;;;5080731;28;20086;-74
2022/05/11 00:25:32;;;;;;;9.80;6.32;;;15.20;56.40;;;;;;5079717;28;20101;-73
2022/05/11 00:27:59;;;;;;;9.73;5.80;;;15.20;56.80;;;;;;5079570;28;20035;-78
2022/05/11 00:30:28;;;;;;;9.63;5.43;;;15.10;56.80;;;;;;5096091;28;20028;-78
2022/05/11 00:32:59;;;;;;;8.73;5.40;;;15.10;56.90;;;;;;5097195;28;20089;-77
2022/05/11 00:35:28;;;;;;;10.88;6.05;;;15.10;57.00;;;;;;5095640;28;20027;-73
2022/05/11 00:37:55;;;;;;;10.88;6.18;;;15.10;57.00;;;;;;5080542;28;20028;-74
2022/05/11 00:40:23;;;;;;;9.82;5.90;;;15.00;57.00;;;;;;5079817;28;20024;-78
2022/05/11 00:42:53;;;;;;;10.88;6.35;;;15.00;57.20;;;;;;5096445;28;20039;-79
2022/05/11 00:45:20;;;;;;;13.48;6.68;;;15.00;56.90;;;;;;5092293;28;20116;-73
2022/05/11 00:49:33;;;;;;;9.85;5.90;;;15.00;57.50;;;;;;5115524;28;20109;-79
2022/05/11 00:50:58;;;;;;;10.48;5.38;;;15.00;57.40;;;;;;5113765;28;20464;-73
2022/05/11 00:53:25;;;;;;;9.93;5.35;;;14.90;57.20;;;;;;5080630;28;20100;-74
2022/05/11 00:55:57;;;;;;;10.63;5.70;;;14.90;57.20;;;;;;5079497;28;20030;-78
2022/05/11 00:58:45;;;;;;;9.70;5.53;;;14.90;57.30;;;;;;5095897;28;20043;-79
2022/05/11 01:01:12;;;;;;;10.73;5.53;;;14.80;57.30;;;;;;5076095;28;20466;-73
2022/05/11 01:04:18;;;;;;;10.43;5.60;;;14.70;57.40;;;;;;5059115;28;20028;-78
2022/05/11 01:06:50;;;;;;;9.07;5.18;;;14.70;57.40;;;;;;5083497;28;20114;-79
2022/05/11 01:09:16;;;;;;;10.27;5.78;;;14.70;57.90;;;;;;5114754;28;20052;-73
2022/05/11 01:11:49;;;;;;;9.48;5.60;;;14.70;57.80;;;;;;5095908;28;20035;-73
2022/05/11 01:14:21;;;;;;;11.60;5.43;;;14.70;57.90;;;;;;5091020;28;20032;-74
2022/05/11 01:16:50;;;;;;;10.25;5.65;;;14.60;58.20;;;;;;5113991;28;20039;-73
2022/05/11 01:19:30;;;;;;;9.48;5.55;;;14.60;58.30;;;;;;5086588;27;20077;-73
2022/05/11 01:22:54;;;;;;;8.50;5.28;;;14.60;58.30;;;;;;5116662;27;20035;-73
2022/05/11 01:25:28;;;;;;;10.52;4.97;;;14.60;57.90;;;;;;5065601;28;20057;-78
2022/05/11 01:28:20;;;;;;;8.43;5.10;;;14.50;57.90;;;;;;5057006;28;20044;-74
2022/05/11 01:30:51;;;;;;;9.95;5.47;;;14.40;58.60;;;;;;5089703;28;20035;-78
2022/05/11 01:33:23;;;;;;;10.10;5.22;;;14.40;59.10;;;;;;5075899;28;20042;-78
2022/05/11 01:36:46;;;;;;;7.95;5.00;;;14.30;59.20;;;;;;5075404;28;20024;-73
2022/05/11 01:39:12;;;;;;;8.90;5.35;;;14.40;58.80;;;;;;5074602;28;20088;-73
2022/05/11 01:41:57;;;;;;;10.27;5.78;;;14.30;59.20;;;;;;5075484;28;20509;-74
2022/05/11 01:44:24;;;;;;;10.45;5.75;;;14.20;60.40;;;;;;5074795;28;20377;-73
2022/05/11 01:47:08;;;;;;;;;;;14.20;59.70;;;;;;5059386;28;20458;-78
2022/05/11 01:49:35;;;;;;;10.13;5.28;;;14.10;58.60;;;;;;5058313;28;19918;-78
2022/05/11 01:52:03;;;;;;;;;;;14.10;59.60;;;;;;5075823;28;20097;-73
2022/05/11 01:54:29;;;;;;;8.88;5.07;;;14.10;58.90;;;;;;5058582;28;19912;-73
2022/05/11 01:57:16;;;;;;;10.05;5.70;;;14.10;59.60;;;;;;5093234;28;20036;-73
2022/05/11 01:59:45;;;;;;;;;;;14.10;59.70;;;;;;5092888;28;20047;-78
2022/05/11 02:02:11;;;;;;;8.93;4.85;;;14.10;58.80;;;;;;5092457;28;20342;-78
2022/05/11 02:10:06;;;;;;;9.13;5.35;;;14.10;60.00;;;;;;5075104;28;20500;-78
2022/05/11 02:12:32;;;;;;;;;;;14.10;60.00;;;;;;5073747;28;20048;-78
2022/05/11 02:15:05;;;;;;;10.27;5.68;;;14.10;59.10;;;;;;5079456;28;20411;-74
2022/05/11 02:17:34;;;;;;;9.68;5.78;;;14.00;59.60;;;;;;5092961;28;20048;-73
2022/05/11 02:20:01;;;;;;;9.40;5.40;;;14.00;59.30;;;;;;5074330;28;20046;-73
2022/05/11 02:22:28;;;;;;;8.88;5.90;;;13.90;59.90;;;;;;5074872;28;20036;-78
2022/05/11 02:24:54;;;;;;;9.93;5.57;;;13.90;60.00;;;;;;5098965;28;20430;-78
2022/05/11 02:27:23;;;;;;;11.68;4.57;;;13.90;60.20;;;;;;5094593;28;20059;-78
2022/05/11 02:29:49;;;;;;;8.68;4.72;;;13.90;59.80;;;;;;5093442;28;20415;-78
2022/05/11 02:32:15;;;;;;;13.43;5.45;;;13.80;59.60;;;;;;5077675;28;20032;-78
2022/05/11 02:37:26;;;;;;;8.95;4.72;;;13.80;59.50;;;;;;5113122;28;20123;-72
2022/05/11 02:39:52;;;;;;;9.40;5.22;;;13.80;59.50;;;;;;5095182;28;20023;-73
2022/05/11 02:42:18;;;;;;;8.90;5.03;;;13.70;59.50;;;;;;5111896;28;20063;-78
2022/05/11 02:44:47;;;;;;;;;;;13.70;59.70;;;;;;5093788;28;20065;-73
2022/05/11 02:47:22;;;;;;;12.43;5.72;;;13.60;58.90;;;;;;5112962;28;19967;-78
2022/05/11 02:49:48;;;;;;;12.88;5.88;;;13.60;59.50;;;;;;5095935;28;20099;-78
2022/05/11 02:52:15;;;;;;;10.90;5.90;;;13.60;59.90;;;;;;5094599;28;20480;-78
2022/05/11 02:54:41;;;;;;;;;;;13.60;59.90;;;;;;5101192;28;20031;-73
2022/05/11 02:57:08;;;;;;;10.93;4.93;;;13.50;59.30;;;;;;5133435;28;19919;-78
2022/05/11 02:59:33;;;;;;;;;;;13.50;60.00;;;;;;5095844;28;20046;-78
2022/05/11 03:01:59;;;;;;;9.73;5.72;;;13.50;59.30;;;;;;5112329;28;19920;-78
2022/05/11 03:04:26;;;;;;;10.57;4.30;;;13.30;59.70;;;;;;5077834;28;20038;-78
2022/05/11 03:06:52;;;;;;;9.32;4.20;;;13.20;59.70;;;;;;5112319;28;20119;-73
2022/05/11 03:09:18;;;;;;;7.82;3.78;;;13.20;59.70;;;;;;5093798;28;20027;-78
2022/05/11 03:11:46;;;;;;;10.00;4.47;;;13.10;59.80;;;;;;5084413;28;20488;-78
2022/05/11 03:14:13;;;;;;;7.05;3.83;;;13.00;59.70;;;;;;5057574;28;20389;-78
2022/05/11 03:16:40;;;;;;;10.02;4.38;;;13.00;59.80;;;;;;5089210;28;20508;-73
2022/05/11 03:19:06;;;;;;;9.27;4.38;;;12.80;60.10;;;;;;5094541;28;20553;-72
2022/05/11 03:21:33;;;;;;;10.23;4.10;;;12.80;59.80;;;;;;5093302;28;20084;-73
2022/05/11 03:24:00;;;;;;;10.05;4.20;;;12.70;60.20;;;;;;5077616;28;20058;-74
2022/05/11 03:26:27;;;;;;;9.02;4.03;;;12.80;60.00;;;;;;5062046;28;20105;-77
2022/05/11 03:28:53;;;;;;;8.70;4.40;;;12.80;59.50;;;;;;5095634;28;20036;-78
2022/05/11 03:31:23;;;;;;;8.52;4.13;;;12.80;60.30;;;;;;5107535;28;20031;-73
2022/05/11 03:36:33;;;;;;;11.80;4.95;;;12.90;60.10;;;;;;5095693;28;20046;-77
2022/05/11 03:38:59;;;;;;;10.77;5.13;;;12.80;59.90;;;;;;5096415;28;20028;-73
2022/05/11 03:41:25;;;;;;;12.75;4.95;;;12.90;60.00;;;;;;5095619;28;20106;-73
2022/05/11 03:43:52;;;;;;;14.10;6.47;;;12.90;60.20;;;;;;5108608;28;20048;-78
2022/05/11 03:46:18;;;;;;;11.43;5.43;;;12.90;60.30;;;;;;5068293;28;20040;-73
2022/05/11 03:48:47;;;;;;;15.10;5.90;;;12.90;60.30;;;;;;5077693;28;20103;-78
2022/05/11 03:51:13;;;;;;;12.07;5.63;;;12.90;60.50;;;;;;5093895;28;20478;-72
2022/05/11 03:53:39;;;;;;;14.52;6.13;;;12.90;61.50;;;;;;5068650;27;20030;-73
2022/05/11 03:56:05;;;;;;;;;;;13.00;60.50;;;;;;5118558;27;20388;-78
2022/05/11 03:58:31;;;;;;;13.52;5.20;;;13.00;59.70;;;;;;5136654;27;19922;-77
2022/05/11 04:01:00;;;;;;;18.25;5.53;;;13.00;60.30;;;;;;5126831;27;20042;-78
2022/05/11 04:03:26;;;;;;;15.00;6.40;;;13.10;60.50;;;;;;5080060;28;20035;-77
2022/05/11 04:05:53;;;;;;;21.05;6.50;;;13.10;60.20;;;;;;5115669;28;20046;-73
2022/05/11 04:08:19;;;;;;;23.48;7.63;;;13.10;61.00;;;;;;5080465;28;20067;-77
2022/05/11 04:10:45;;;;;;;16.92;7.20;;;13.10;61.30;;;;;;5081262;28;20483;-78
2022/05/11 04:13:11;;;;;;;13.60;7.72;;;13.20;61.30;;;;;;5104911;28;20074;-77
2022/05/11 04:15:42;;;;;;;14.23;7.25;;;13.30;61.40;;;;;;5113389;28;20036;-72
2022/05/11 04:18:11;;;;;;;20.42;7.40;;;13.30;61.50;;;;;;5081218;28;20503;-77
2022/05/11 04:20:37;;;;;;;25.73;8.20;;;13.30;61.80;;;;;;5096203;28;20508;-73
2022/05/11 04:23:04;;;;;;;13.73;7.13;;;13.30;62.10;;;;;;5097831;28;20441;-78
2022/05/11 04:25:30;;;;;;;13.55;6.50;;;13.40;61.80;;;;;;5079708;28;20035;-73
2022/05/11 04:27:56;;;;;;;24.75;8.00;;;13.50;61.90;;;;;;5108520;27;20089;-78
2022/05/11 04:30:26;;;;;;;16.02;7.55;;;13.60;61.90;;;;;;5115309;27;20042;-78
2022/05/11 04:32:53;;;;;;;22.45;7.68;;;13.60;62.40;;;;;;5062529;27;20618;-73
2022/05/11 04:35:20;;;;;;;21.90;8.13;;;13.70;62.30;;;;;;5117471;27;20114;-78
2022/05/11 04:37:46;;;;;;;33.38;8.80;;;13.80;62.10;;;;;;5117864;27;20035;-73
2022/05/11 04:40:12;;;;;;;18.30;7.72;;;13.90;62.30;;;;;;5083542;28;20115;-77
2022/05/11 04:42:38;;;;;;;26.95;7.65;;;14.00;62.20;;;;;;5095056;28;20060;-78
2022/05/11 04:45:05;;;;;;;16.08;7.68;;;14.00;62.50;;;;;;5113931;27;20016;-73
2022/05/11 04:47:44;;;;;;;14.95;7.97;;;14.10;62.00;;;;;;5097989;28;20051;-78
2022/05/11 04:50:17;;;;;;;16.00;6.75;;;14.10;62.60;;;;;;5101992;27;20020;-78
2022/05/11 04:52:43;;;;;;;16.70;7.53;;;14.20;62.90;;;;;;5101929;28;20032;-78
2022/05/11 04:55:11;;;;;;;14.18;8.30;;;14.20;62.50;;;;;;5076327;28;20035;-78
2022/05/11 04:57:38;;;;;;;14.75;7.95;;;14.20;62.80;;;;;;5076431;28;20496;-73
2022/05/11 05:02:56;;;;;;;12.15;7.47;;;14.40;62.50;;;;;;5098237;28;20047;-73
2022/05/11 05:05:22;;;;;;;13.70;7.55;;;14.40;62.60;;;;;;5096389;28;20115;-77
2022/05/11 05:07:51;;;;;;;13.85;7.28;;;14.50;62.80;;;;;;5115169;28;20047;-79
2022/05/11 05:10:27;;;;;;;12.88;7.30;;;14.50;62.90;;;;;;5114450;28;20069;-73
2022/05/11 05:12:53;;;;;;;15.13;7.38;;;14.60;62.70;;;;;;5079947;28;20054;-78
2022/05/11 05:15:19;;;;;;;12.52;6.90;;;14.70;62.50;;;;;;5078823;28;20028;-77
2022/05/11 05:17:52;;;;;;;14.25;7.30;;;14.80;62.40;;;;;;5113343;28;20039;-73
2022/05/11 05:20:18;;;;;;;14.25;6.68;;;15.00;62.20;;;;;;5078794;28;20034;-78
2022/05/11 05:22:44;;;;;;;;;;;14.90;62.30;;;;;;5097098;28;20039;-73
2022/05/11 05:25:11;;;;;;;11.43;7.00;;;15.00;61.70;;;;;;5077880;28;19920;-73
2022/05/11 05:27:37;;;;;;;;;;;15.00;61.90;;;;;;5079823;28;20032;-78
2022/05/11 05:32:48;;;;;;;11.75;7.30;;;15.00;61.90;;;;;;5098219;28;20519;-72
2022/05/11 05:35:17;;;;;;;11.80;7.45;;;15.00;62.20;;;;;;5113870;28;20027;-77
2022/05/11 05:37:44;;;;;;;12.25;7.20;;;14.90;62.20;;;;;;5096221;28;20046;-73
2022/05/11 05:40:10;;;;;;;13.90;7.82;;;14.90;62.50;;;;;;5113842;28;20032;-77
2022/05/11 05:42:38;;;;;;;12.55;8.18;;;14.90;62.30;;;;;;5096091;28;20031;-72
2022/05/11 05:45:23;;;;;;;13.27;7.43;;;14.90;62.70;;;;;;5113999;28;20067;-78
2022/05/11 05:47:49;;;;;;;14.20;7.53;;;14.90;63.00;;;;;;5095050;28;20449;-74
2022/05/11 05:50:18;;;;;;;12.63;7.80;;;14.90;63.30;;;;;;5078079;28;20465;-74
2022/05/11 05:52:49;;;;;;;12.73;7.47;;;15.10;63.30;;;;;;5095878;28;20553;-77
2022/05/11 05:55:16;;;;;;;14.05;8.27;;;15.20;62.70;;;;;;5113533;28;20385;-78
2022/05/11 05:57:42;;;;;;;11.93;6.90;;;15.30;62.40;;;;;;5095908;28;20039;-73
2022/05/11 06:00:08;;;;;;;14.35;7.53;;;15.40;62.30;;;;;;5095455;28;20325;-73
2022/05/11 06:02:34;;;;;;;10.38;6.55;;;15.60;61.40;;;;;;5077525;28;20139;-74
2022/05/11 06:05:01;;;;;;;14.57;7.25;;;15.80;61.60;;;;;;5078708;28;20034;-73
2022/05/11 06:07:27;;;;;;;11.02;7.50;;;15.80;62.00;;;;;;5094239;28;20573;-73
2022/05/11 06:09:53;;;;;;;11.55;7.88;;;15.90;61.90;;;;;;5078326;28;20110;-73
2022/05/11 06:12:19;;;;;;;11.43;7.40;;;16.10;61.80;;;;;;5113304;28;20122;-77
2022/05/11 06:14:46;;;;;;;14.07;7.75;;;16.10;61.00;;;;;;5095556;28;20103;-77
2022/05/11 06:17:19;;;;;;;14.57;7.45;;;16.30;61.60;;;;;;5094214;28;20083;-73
2022/05/11 06:19:45;;;;;;;13.23;7.53;;;16.40;61.10;;;;;;5113542;28;20077;-74
2022/05/11 06:22:11;;;;;;;;;;;16.50;61.10;;;;;;5078392;28;20130;-77
2022/05/11 06:24:40;;;;;;;13.98;6.82;;;16.60;60.20;;;;;;5095137;28;19915;-77
2022/05/11 06:27:29;;;;;;;10.90;6.53;;;16.80;60.20;;;;;;5094826;28;20077;-77
2022/05/11 06:29:58;;;;;;;9.95;6.45;;;17.00;59.90;;;;;;5113518;28;20043;-73
2022/05/11 06:32:25;;;;;;;10.77;6.47;;;17.10;59.40;;;;;;5094012;28;20381;-77
2022/05/11 06:34:52;;;;;;;14.30;6.15;;;17.30;59.10;;;;;;5095107;28;20105;-73
2022/05/11 06:37:21;;;;;;;10.27;6.00;;;17.40;59.10;;;;;;5113096;28;20040;-76
2022/05/11 06:39:50;;;;;;;12.55;6.38;;;17.50;58.90;;;;;;5113232;28;20549;-76
2022/05/11 06:42:17;;;;;;;10.60;5.93;;;17.60;58.80;;;;;;5094715;28;20036;-73
2022/05/11 06:44:43;;;;;;;13.40;6.93;;;17.70;58.70;;;;;;5078131;28;20036;-73
2022/05/11 06:47:09;;;;;;;11.63;6.47;;;17.90;58.60;;;;;;5073326;28;20032;-72
2022/05/11 06:49:35;;;;;;;11.45;6.20;;;18.00;58.10;;;;;;5091408;28;20036;-73
2022/05/11 06:52:02;;;;;;;11.68;6.38;;;18.20;57.90;;;;;;5074269;28;20127;-72
2022/05/11 06:59:58;;;;;;;12.07;5.88;;;18.80;57.40;;;;;;5092842;28;20047;-77
2022/05/11 07:02:28;;;;;;;11.52;5.78;;;19.00;57.00;;;;;;5081974;28;20074;-76
2022/05/11 07:04:57;;;;;;;10.00;5.90;;;19.20;56.50;;;;;;5099364;28;20061;-72
2022/05/11 07:07:23;;;;;;;9.68;6.15;;;19.40;56.80;;;;;;5098150;28;20076;-72
2022/05/11 07:09:49;;;;;;;12.10;6.93;;;19.60;56.80;;;;;;5081879;28;20045;-77
2022/05/11 07:12:18;;;;;;;8.35;5.45;;;19.80;56.60;;;;;;5116980;28;20035;-72
2022/05/11 07:15:05;;;;;;;9.23;5.20;;;19.90;56.00;;;;;;5099349;28;20441;-77
2022/05/11 07:17:52;;;;;;;7.90;5.20;;;20.00;55.70;;;;;;5097908;28;20965;-71
2022/05/11 07:20:37;;;;;;;8.55;5.40;;;20.20;55.10;;;;;;5080907;28;20032;-76
2022/05/11 07:23:07;;;;;;;8.15;5.63;;;20.50;54.70;;;;;;5098668;28;20638;-77
2022/05/11 07:25:36;;;;;;;8.38;4.93;;;20.60;54.40;;;;;;5097998;28;20445;-72
2022/05/11 07:28:03;;;;;;;10.15;5.18;;;20.70;54.10;;;;;;5117209;28;20499;-72
2022/05/11 07:30:34;;;;;;;8.65;4.78;;;20.70;53.20;;;;;;5098143;28;20527;-72
2022/05/11 07:33:01;;;;;;;8.95;4.78;;;20.70;53.90;;;;;;5116305;28;20036;-77
2022/05/11 07:35:30;;;;;;;11.25;5.30;;;20.80;53.70;;;;;;5115710;28;20492;-77
2022/05/11 07:37:57;;;;;;;10.35;6.10;;;20.80;53.60;;;;;;5117085;28;20085;-71
2022/05/11 07:40:26;;;;;;;9.48;5.50;;;20.90;53.90;;;;;;5098030;28;20481;-76
2022/05/11 07:42:54;;;;;;;11.68;5.07;;;21.00;53.00;;;;;;5098415;28;20048;-77
2022/05/11 07:45:22;;;;;;;11.48;5.40;;;21.10;52.50;;;;;;5098043;28;20028;-72
2022/05/11 07:47:49;;;;;;;8.68;5.15;;;21.20;52.30;;;;;;5116005;28;20044;-71
2022/05/11 07:50:18;;;;;;;8.90;5.47;;;21.30;51.80;;;;;;5097791;28;20077;-72
2022/05/11 07:52:48;;;;;;;7.93;5.13;;;21.40;51.70;;;;;;5081632;28;20047;-76
2022/05/11 07:55:16;;;;;;;8.57;5.43;;;21.40;50.70;;;;;;5098031;28;20057;-72
2022/05/11 08:00:30;;;;;;;;;;;21.60;50.10;;;;;;5116387;28;20511;-76
2022/05/11 08:02:56;;;;;;;11.55;5.45;;;21.80;50.10;;;;;;5115731;28;19920;-71
2022/05/11 08:05:22;;;;;;;;;;;22.10;50.30;;;;;;5116231;28;20032;-72
2022/05/11 08:07:54;;;;;;;10.63;5.00;;;22.40;49.90;;;;;;5098063;28;19961;-72
2022/05/11 08:10:43;;;;;;;10.75;5.50;;;22.80;48.80;;;;;;5080398;28;20064;-77
2022/05/11 08:13:16;;;;;;;11.10;5.07;;;23.20;48.40;;;;;;5080758;28;20042;-76
2022/05/11 08:15:47;;;;;;;7.60;4.90;;;23.50;47.70;;;;;;5115516;28;20051;-73
2022/05/11 08:18:13;;;;;;;10.95;6.13;;;23.90;47.00;;;;;;5076178;28;20134;-72
2022/05/11 08:20:43;;;;;;;7.88;5.18;;;24.30;47.00;;;;;;5077144;28;20032;-72
2022/05/11 08:23:11;;;;;;;7.75;4.90;;;24.80;47.40;;;;;;5077752;28;20050;-77
2022/05/11 08:25:39;;;;;;;10.95;5.45;;;25.30;45.40;;;;;;5076876;28;20177;-77
2022/05/11 08:28:26;;;;;;;10.80;4.90;;;25.80;43.60;;;;;;5077371;28;20082;-73
2022/05/11 08:33:44;;;;;;;10.13;4.35;;;26.80;42.40;;;;;;5106854;28;20522;-78
2022/05/11 08:36:31;;;;;;;7.28;4.47;;;27.60;41.30;;;;;;5115153;28;20499;-77
2022/05/11 08:39:00;;;;;;;8.35;4.20;;;28.10;41.30;;;;;;5115579;28;20055;-72
2022/05/11 08:42:04;;;;;;;8.00;4.65;;;28.50;37.80;;;;;;5096750;28;20046;-78
2022/05/11 08:44:49;;;;;;;11.63;4.50;;;29.50;39.30;;;;;;5115386;28;20114;-73
2022/05/11 08:47:53;;;;;;;6.40;3.78;;;30.40;36.40;;;;;;5096805;28;20300;-73
2022/05/11 08:50:26;;;;;;;8.50;4.22;;;31.20;34.80;;;;;;5114878;28;20046;-78
2022/05/11 08:53:50;;;;;;;6.32;4.32;;;31.80;32.00;;;;;;5097379;28;20175;-73
2022/05/11 08:56:18;;;;;;;8.77;3.58;;;32.50;32.60;;;;;;5114524;28;20339;-77
2022/05/11 08:58:50;;;;;;;8.07;3.80;;;33.30;29.50;;;;;;5079819;28;20024;-78
2022/05/11 09:01:40;;;;;;;9.95;4.13;;;33.80;27.50;;;;;;5096405;28;20050;-74
2022/05/11 09:04:11;;;;;;;8.45;4.28;;;34.30;28.60;;;;;;5095942;28;20031;-78
2022/05/11 09:06:38;;;;;;;6.90;4.28;;;34.80;27.30;;;;;;5096676;28;20044;-78
2022/05/11 09:09:05;;;;;;;6.20;3.65;;;35.30;26.30;;;;;;5096805;28;20053;-78
2022/05/11 09:11:52;;;;;;;7.53;3.95;;;35.80;25.50;;;;;;5096174;28;20544;-77
2022/05/11 09:14:59;;;;;;;6.00;3.92;;;36.40;25.30;;;;;;5096504;28;20111;-78
2022/05/11 09:17:44;;;;;;;6.45;3.92;;;37.10;25.10;;;;;;5114448;28;20044;-73
2022/05/11 09:20:33;;;;;;;7.57;4.07;;;37.80;24.40;;;;;;5075508;28;20099;-77
2022/05/11 09:23:03;;;;;;;8.48;3.90;;;38.20;23.80;;;;;;5076358;28;20059;-78
2022/05/11 09:26:09;;;;;;;8.52;3.72;;;38.70;21.80;;;;;;5074799;28;20051;-73
2022/05/11 09:28:39;;;;;;;5.65;3.50;;;39.20;21.90;;;;;;5093950;28;20036;-77
2022/05/11 09:31:26;;;;;;;10.85;4.18;;;39.50;19.50;;;;;;5075450;28;20028;-73
2022/05/11 09:34:14;;;;;;;6.30;3.53;;;39.10;20.90;;;;;;5084076;28;20529;-73
2022/05/11 09:37:01;;;;;;;6.32;3.53;;;39.40;20.20;;;;;;5095729;28;20045;-72
2022/05/11 09:39:29;;;;;;;6.13;3.28;;;39.80;19.10;;;;;;5114371;28;20036;-77
2022/05/11 09:42:32;;;;;;;7.35;3.50;;;39.80;19.00;;;;;;5078706;28;20523;-73
2022/05/11 09:44:58;;;;;;;5.85;3.70;;;40.20;19.40;;;;;;5096402;28;20059;-73
2022/05/11 09:48:02;;;;;;;5.82;3.30;;;40.50;18.30;;;;;;5095458;28;20044;-77
2022/05/11 09:50:31;;;;;;;5.05;3.40;;;41.20;18.50;;;;;;5076360;28;20050;-77
2022/05/11 09:53:46;;;;;;;7.68;3.92;;;41.70;17.30;;;;;;5075612;28;20043;-72
2022/05/11 09:57:09;;;;;;;25.40;4.43;;;42.00;17.90;;;;;;5074854;28;20065;-73
2022/05/11 10:00:16;;;;;;;11.65;6.03;;;42.70;17.10;;;;;;5093463;28;20032;-73
2022/05/11 10:03:24;;;;;;;14.98;3.65;;;43.60;16.50;;;;;;5093922;28;20527;-73
2022/05/11 10:05:53;;;;;;;6.95;2.92;;;44.10;16.00;;;;;;5093062;28;20058;-76
2022/05/11 10:08:36;;;;;;;6.55;3.33;;;44.10;14.70;;;;;;5075114;28;20424;-77
2022/05/11 10:11:37;;;;;;;5.93;3.38;;;44.70;14.60;;;;;;5058252;28;20481;-76
2022/05/11 10:23:16;;;;;;;5.05;3.70;;;47.00;13.60;;;;;;5098189;28;20046;-73
2022/05/11 10:25:47;;;;;;;5.72;3.40;;;47.70;13.70;;;;;;5094977;28;20096;-73
2022/05/11 10:29:10;;;;;;;7.00;3.50;;;48.70;12.30;;;;;;5095531;28;20039;-76
2022/05/11 10:31:59;;;;;;;8.38;3.90;;;48.90;12.70;;;;;;5113131;28;20373;-76
2022/05/11 10:35:21;;;;;;;7.88;4.50;;;48.40;13.10;;;;;;5094064;28;20031;-73
2022/05/11 10:38:01;;;;;;;10.85;4.35;;;49.10;13.00;;;;;;5113709;28;20089;-73
2022/05/11 10:40:48;;;;;;;5.53;4.20;;;49.90;11.90;;;;;;5112859;28;20032;-75
2022/05/11 10:43:46;;;;;;;9.07;4.28;;;50.50;11.60;;;;;;5113652;28;20044;-73
2022/05/11 10:47:08;;;;;;;6.38;3.95;;;50.70;11.40;;;;;;5094933;28;20035;-72
2022/05/11 10:50:17;;;;;;;8.57;4.70;;;50.50;11.10;;;;;;5112126;28;20041;-72
2022/05/11 10:53:20;;;;;;;6.53;4.25;;;49.90;11.20;;;;;;5094844;28;20503;-76
2022/05/11 10:55:52;;;;;;;8.80;4.65;;;50.40;11.20;;;;;;5112740;28;20062;-73
2022/05/11 10:58:35;;;;;;;6.68;4.15;;;50.90;10.50;;;;;;5113012;28;20410;-75
2022/05/11 11:01:15;;;;;;;6.47;4.70;;;51.60;10.40;;;;;;5094558;28;20138;-75
2022/05/11 11:04:11;;;;;;;5.60;4.57;;;52.20;10.30;;;;;;5093957;28;20024;-73
2022/05/11 11:07:13;;;;;;;9.02;4.80;;;52.60;10.00;;;;;;5094274;28;20039;-73
2022/05/11 11:09:57;;;;;;;6.47;4.60;;;52.40;10.70;;;;;;5112901;28;20134;-73
2022/05/11 11:12:33;;;;;;;7.20;5.00;;;52.30;10.60;;;;;;5112908;28;20039;-76
2022/05/11 11:15:05;;;;;;;11.40;4.95;;;52.30;10.10;;;;;;5094796;28;20085;-76
2022/05/11 11:17:50;;;;;;;8.68;4.97;;;52.90;9.30;;;;;;5094754;28;20039;-76
2022/05/11 11:20:19;;;;;;;;;;;53.60;9.90;;;;;;5073632;28;20020;-72
2022/05/11 11:23:08;;;;;;;10.57;5.50;;;53.80;10.00;;;;;;5074541;28;19920;-73
2022/05/11 11:25:56;;;;;;;6.50;4.35;;;53.90;9.70;;;;;;5073881;28;20086;-76
2022/05/11 11:28:41;;;;;;;8.45;4.88;;;53.60;9.50;;;;;;5074102;28;20079;-73
2022/05/11 11:31:26;;;;;;;;;;;53.40;9.60;;;;;;5074283;28;20558;-73
2022/05/11 11:34:04;;;;;;;11.70;5.55;;;54.00;10.50;;;;;;5074412;28;19919;-76
2022/05/11 11:36:41;;;;;;;9.02;5.22;;;54.30;9.70;;;;;;5093970;28;20427;-76
2022/05/11 11:39:48;;;;;;;7.30;5.60;;;54.40;9.30;;;;;;5094516;28;20034;-76
2022/05/11 11:42:31;;;;;;;8.15;5.00;;;54.60;9.80;;;;;;5094201;28;20042;-75
2022/05/11 11:44:57;;;;;;;5.50;4.80;;;54.50;9.40;;;;;;5112635;28;20050;-73
2022/05/11 11:48:08;;;;;;;5.55;4.82;;;54.20;8.20;;;;;;5076384;28;20086;-72
2022/05/11 11:51:30;;;;;;;31.88;5.53;;;53.90;8.70;;;;;;5096857;28;20042;-73
2022/05/11 11:53:57;;;;;;;10.27;5.45;;;54.60;9.00;;;;;;5098184;28;20027;-73
2022/05/11 11:56:42;;;;;;;7.38;5.30;;;55.40;9.10;;;;;;5116006;28;20371;-76
2022/05/11 11:59:09;;;;;;;;;;;56.00;8.80;;;;;;5116910;28;20396;-76
2022/05/11 12:01:57;;;;;;;7.88;6.07;;;56.30;9.70;;;;;;5080579;28;19962;-73
2022/05/11 12:05:04;;;;;;;6.65;5.07;;;56.60;9.00;;;;;;5096975;28;20043;-73
2022/05/11 12:17:08;;;;;;;25.30;6.50;;;57.70;8.10;;;;;;5100171;28;20047;-73
2022/05/11 12:19:38;;;;;;;12.05;7.45;;;57.70;8.10;;;;;;5080003;28;20036;-76
2022/05/11 12:22:25;;;;;;;7.60;6.32;;;57.00;8.50;;;;;;5097374;28;20455;-73
2022/05/11 12:25:29;;;;;;;6.75;6.13;;;56.20;8.30;;;;;;5097667;28;20088;-76
2022/05/11 12:28:00;;;;;;;10.30;7.07;;;56.00;8.70;;;;;;5097492;28;20031;-73
2022/05/11 12:30:49;;;;;;;8.73;6.30;;;55.80;8.50;;;;;;5097112;28;20396;-76
2022/05/11 12:33:36;;;;;;;6.80;6.00;;;56.00;8.40;;;;;;5116034;28;20111;-75
2022/05/11 12:36:04;;;;;;;6.50;5.85;;;56.60;8.10;;;;;;5075872;28;20032;-73
2022/05/11 12:38:51;;;;;;;8.48;6.47;;;56.60;7.50;;;;;;5076828;28;20473;-74
2022/05/11 12:41:35;;;;;;;8.48;7.00;;;56.80;7.70;;;;;;5094645;28;20032;-73
2022/05/11 12:44:29;;;;;;;8.98;6.22;;;57.50;7.90;;;;;;5094922;28;20036;-76
2022/05/11 12:46:58;;;;;;;10.70;7.22;;;57.80;8.00;;;;;;5077203;28;20119;-73
2022/05/11 12:49:44;;;;;;;11.38;7.68;;;58.30;8.10;;;;;;5076715;28;20047;-73
2022/05/11 12:52:26;;;;;;;9.73;7.32;;;58.60;8.10;;;;;;5094722;28;20044;-73
2022/05/11 12:55:11;;;;;;;8.07;7.30;;;58.70;7.90;;;;;;5107163;27;20233;-75
2022/05/11 12:57:57;;;;;;;7.75;7.05;;;58.50;7.80;;;;;;5117437;27;20387;-76
2022/05/11 13:00:28;;;;;;;8.02;6.72;;;58.60;7.80;;;;;;5134114;27;20035;-73
2022/05/11 13:02:56;;;;;;;10.98;7.10;;;58.80;7.10;;;;;;5117594;27;20058;-76
2022/05/11 13:05:23;;;;;;;8.52;7.72;;;59.30;7.80;;;;;;5126910;27;20401;-76
2022/05/11 13:08:11;;;;;;;7.70;6.88;;;59.40;7.60;;;;;;5079922;28;20032;-73
2022/05/11 13:10:38;;;;;;;8.80;8.10;;;59.40;7.70;;;;;;5114564;28;20039;-76
2022/05/11 13:13:15;;;;;;;28.35;8.27;;;59.30;7.30;;;;;;5096640;28;20035;-76
2022/05/11 13:15:45;;;;;;;8.38;7.68;;;59.60;7.80;;;;;;5079965;28;20028;-76
2022/05/11 13:18:24;;;;;;;9.23;8.50;;;59.40;7.20;;;;;;5096680;28;20073;-73
2022/05/11 13:20:52;;;;;;;11.15;8.35;;;59.30;7.40;;;;;;5074976;28;20417;-73
2022/05/11 13:23:59;;;;;;;10.15;8.75;;;59.50;7.60;;;;;;5076146;28;20485;-74
2022/05/11 13:26:47;;;;;;;8.90;7.57;;;59.50;7.80;;;;;;5055689;28;20405;-76
2022/05/11 13:29:33;;;;;;;8.70;8.00;;;59.50;7.70;;;;;;5073745;28;20060;-76
2022/05/11 13:32:56;;;;;;;9.90;8.77;;;59.00;7.60;;;;;;5055610;28;20521;-73
2022/05/11 13:35:43;;;;;;;9.48;6.82;;;58.20;7.90;;;;;;5076800;28;20097;-76
2022/05/11 13:38:10;;;;;;;8.90;7.45;;;58.10;8.00;;;;;;5094350;28;20051;-76
2022/05/11 13:40:49;;;;;;;13.88;7.80;;;57.80;7.60;;;;;;5093700;28;20032;-72
2022/05/11 13:43:33;;;;;;;8.50;7.60;;;57.70;7.50;;;;;;5094080;28;20126;-74
2022/05/11 13:48:11;;;;;;;7.57;6.78;;;57.40;8.10;;;;;;5075871;28;20030;-72
2022/05/11 13:49:34;;;;;;;7.50;6.32;;;56.80;8.10;;;;;;5078437;28;20053;-73
2022/05/11 13:52:05;;;;;;;8.90;6.05;;;56.40;8.40;;;;;;5054259;28;20036;-73
2022/05/11 13:54:52;;;;;;;7.30;5.38;;;55.80;8.10;;;;;;5055134;28;20029;-73
2022/05/11 13:57:50;;;;;;;5.70;5.05;;;55.30;8.30;;;;;;5055148;28;20036;-76
2022/05/11 14:00:21;;;;;;;5.75;5.10;;;54.70;8.00;;;;;;5072849;28;20108;-77
2022/05/11 14:03:06;;;;;;;8.85;5.50;;;54.30;8.00;;;;;;5072278;28;20037;-76
2022/05/11 14:05:32;;;;;;;6.30;5.30;;;54.50;8.00;;;;;;5057826;28;20036;-73
2022/05/11 14:07:58;;;;;;;6.57;4.97;;;54.70;8.00;;;;;;5093265;28;20044;-74
2022/05/11 14:10:25;;;;;;;10.75;4.22;;;54.80;8.20;;;;;;5091693;28;20040;-77
2022/05/11 14:12:57;;;;;;;5.90;5.05;;;54.60;8.50;;;;;;5091867;28;20032;-77
2022/05/11 14:15:29;;;;;;;6.78;5.07;;;53.90;8.00;;;;;;5092791;28;20032;-77
2022/05/11 14:17:55;;;;;;;7.35;4.10;;;53.20;8.20;;;;;;5075211;28;20036;-73